Time;durP1;ratioP1;P1;durP2;ratioP2;P2;SDS_P1;SDS_P2;PMS_P1;PMS_P2;Temp;Humidity;BMP_temperature;BMP_pressure;BME280_temperature;BME280_humidity;BME280_pressure;Samples;Min_cycle;Max_cycle;Signal;HPM_P1;HPM_P2
2023/12/05 00:00:25;;;;;;;23.77;11.20;;;;;;;2.31;100.00;95619.72;4977863;28;20233;-79
2023/12/05 00:02:50;;;;;;;23.50;12.00;;;;;;;2.49;100.00;95615.53;4986187;28;20238;-78
2023/12/05 00:05:16;;;;;;;25.63;12.00;;;;;;;2.51;100.00;95616.22;4966533;28;20349;-78
2023/12/05 00:07:43;;;;;;;24.67;11.47;;;;;;;2.21;100.00;95613.72;4994608;28;20346;-78
2023/12/05 00:10:09;;;;;;;21.53;10.53;;;;;;;2.40;100.00;95618.94;4970961;28;20263;-77
2023/12/05 00:12:35;;;;;;;20.43;10.37;;;;;;;2.37;100.00;95621.78;4975839;28;20310;-78
2023/12/05 00:15:01;;;;;;;25.10;11.40;;;;;;;2.39;100.00;95619.06;4975180;28;20236;-79
2023/12/05 00:17:26;;;;;;;23.27;11.73;;;;;;;2.42;100.00;95623.94;4975749;28;20232;-79
2023/12/05 00:19:52;;;;;;;19.40;10.20;;;;;;;2.42;100.00;95623.94;4977329;28;20262;-73
2023/12/05 00:22:17;;;;;;;18.90;9.73;;;;;;;2.49;100.00;95623.28;4990793;28;20240;-72
2023/12/05 00:24:43;;;;;;;18.80;9.00;;;;;;;2.34;100.00;95626.41;4981740;28;20897;-73
2023/12/05 00:27:09;;;;;;;14.20;8.17;;;;;;;2.23;100.00;95629.88;4973739;28;20330;-72
2023/12/05 00:29:36;;;;;;;15.30;8.47;;;;;;;2.33;100.00;95624.75;4976705;28;20232;-72
2023/12/05 00:32:01;;;;;;;17.50;8.50;;;;;;;2.39;100.00;95626.81;4993472;28;20716;-72
2023/12/05 00:34:27;;;;;;;13.93;7.87;;;;;;;2.40;100.00;95624.09;4976767;28;20245;-72
2023/12/05 00:36:53;;;;;;;12.90;7.40;;;;;;;2.45;100.00;95626.28;4980049;28;20228;-73
2023/12/05 00:39:19;;;;;;;13.67;7.40;;;;;;;2.31;100.00;95627.47;4975147;28;20259;-73
2023/12/05 00:41:45;;;;;;;11.97;7.30;;;;;;;2.36;100.00;95630.50;4973955;28;20729;-72
2023/12/05 00:44:11;;;;;;;13.30;7.30;;;;;;;2.34;100.00;95634.94;4982565;28;20302;-73
2023/12/05 00:46:36;;;;;;;13.23;7.10;;;;;;;2.27;100.00;95626.09;4973253;28;20231;-72
2023/12/05 00:49:02;;;;;;;12.00;7.47;;;;;;;2.18;100.00;95619.13;4975684;28;20265;-72
2023/12/05 00:51:28;;;;;;;13.93;6.87;;;;;;;2.18;100.00;95626.88;4990175;28;20235;-79
2023/12/05 00:53:53;;;;;;;11.33;6.90;;;;;;;2.27;100.00;95615.75;4965724;28;20710;-79
2023/12/05 00:56:20;;;;;;;12.97;7.10;;;;;;;2.34;100.00;95616.88;4992412;28;20757;-79
2023/12/05 00:58:49;;;;;;;10.77;6.67;;;;;;;2.15;100.00;95614.22;4976507;28;20227;-79
2023/12/05 01:01:15;;;;;;;12.30;6.37;;;;;;;2.19;100.00;95614.78;4973423;28;20748;-79
2023/12/05 01:03:40;;;;;;;11.00;6.57;;;;;;;2.31;100.00;95619.72;4975834;28;20224;-79
2023/12/05 01:06:06;;;;;;;12.87;6.37;;;;;;;2.30;100.00;95609.50;4955764;28;20840;-80
2023/12/05 01:08:32;;;;;;;11.13;6.17;;;;;;;2.25;100.00;95616.84;4973529;28;20250;-80
2023/12/05 01:10:57;;;;;;;11.47;6.60;;;;;;;2.27;100.00;95613.19;4975328;28;20735;-79
2023/12/05 01:13:24;;;;;;;11.00;5.70;;;;;;;2.11;98.63;95606.88;4974240;28;20795;-80
2023/12/05 01:15:50;;;;;;;12.40;5.83;;;;;;;2.04;98.99;95604.84;4973276;28;20228;-79
2023/12/05 01:18:15;;;;;;;9.77;5.37;;;;;;;2.01;98.76;95601.69;4992315;28;20322;-80
2023/12/05 01:20:41;;;;;;;12.97;6.20;;;;;;;2.08;98.83;95587.31;4978086;28;20347;-78
2023/12/05 01:23:07;;;;;;;12.30;5.70;;;;;;;2.05;97.39;95579.84;4974400;28;20335;-78
2023/12/05 01:25:32;;;;;;;11.80;5.73;;;;;;;2.07;97.26;95580.53;4988148;28;20260;-78
2023/12/05 01:27:58;;;;;;;12.63;5.80;;;;;;;2.15;97.04;95577.28;4973435;28;20310;-79
2023/12/05 01:30:24;;;;;;;13.37;5.93;;;;;;;1.91;95.82;95585.38;4981012;28;20246;-79
2023/12/05 01:32:49;;;;;;;12.80;5.77;;;;;;;1.84;95.94;95579.09;4974470;28;20318;-80
2023/12/05 01:35:16;;;;;;;12.03;5.30;;;;;;;1.87;96.12;95571.06;4977441;28;20258;-79
2023/12/05 01:37:42;;;;;;;13.53;5.90;;;;;;;1.64;97.11;95562.72;4992172;28;20235;-81
2023/12/05 01:40:11;;;;;;;11.10;5.60;;;;;;;1.71;96.54;95568.16;4973390;28;20231;-77
2023/12/05 01:42:37;;;;;;;11.47;5.70;;;;;;;1.80;96.84;95562.22;4964582;28;20231;-79
2023/12/05 01:45:07;;;;;;;10.50;5.80;;;;;;;2.00;96.07;95562.19;4973248;28;20247;-79
2023/12/05 01:47:41;;;;;;;11.50;5.90;;;;;;;1.73;96.41;95568.84;4975290;28;20254;-78
2023/12/05 01:50:11;;;;;;;10.73;5.87;;;;;;;1.77;97.20;95549.56;4978423;28;20238;-79
2023/12/05 01:52:39;;;;;;;11.70;6.03;;;;;;;1.65;96.58;95550.66;4980947;28;20275;-80
2023/12/05 01:55:06;;;;;;;11.87;6.10;;;;;;;1.74;96.65;95547.28;4987705;28;20686;-79
2023/12/05 01:57:32;;;;;;;10.00;5.73;;;;;;;1.63;97.30;95544.78;4979218;28;20235;-79
2023/12/05 01:59:58;;;;;;;11.17;6.00;;;;;;;1.65;97.15;95545.50;4950168;28;20232;-79
2023/12/05 02:02:24;;;;;;;10.27;5.70;;;;;;;1.74;96.86;95547.28;4992485;28;20231;-78
2023/12/05 02:04:49;;;;;;;11.27;6.67;;;;;;;1.65;96.71;95548.06;4955807;28;20310;-79
2023/12/05 02:07:15;;;;;;;27.43;14.43;;;;;;;1.64;97.33;95554.16;4972819;28;20335;-80
2023/12/05 02:09:40;;;;;;;24.43;14.37;;;;;;;1.61;96.99;95550.06;4974604;28;20238;-79
2023/12/05 02:12:06;;;;;;;38.27;18.37;;;;;;;1.81;97.17;95548.38;4971386;28;21021;-79
2023/12/05 02:14:32;;;;;;;55.40;24.77;;;;;;;1.99;96.48;95546.81;4971012;28;20265;-78
2023/12/05 02:17:14;;;;;;;42.83;22.43;;;;;;;1.91;96.40;95542.28;4965375;28;20220;-79
2023/12/05 02:19:43;;;;;;;25.70;13.90;;;;;;;2.07;96.62;95562.47;4971195;28;20234;-78
2023/12/05 02:22:53;;;;;;;35.47;18.07;;;;;;;2.09;95.21;95560.56;4976352;28;20254;-79
2023/12/05 02:25:37;;;;;;;56.93;24.00;;;;;;;2.12;94.94;95546.56;4979314;28;20800;-78
2023/12/05 02:28:02;;;;;;;21.90;10.97;;;;;;;1.88;95.64;95534.84;4974215;28;20240;-79
2023/12/05 02:30:28;;;;;;;32.87;15.30;;;;;;;1.99;95.36;95544.22;4966638;28;20238;-78
2023/12/05 02:32:53;;;;;;;17.03;8.37;;;;;;;2.04;94.97;95535.13;4975279;28;20262;-79
2023/12/05 02:35:19;;;;;;;53.53;22.27;;;;;;;1.95;95.24;95524.78;4978545;28;20267;-79
2023/12/05 02:37:47;;;;;;;33.63;15.57;;;;;;;1.85;96.04;95526.53;4975961;28;20724;-72
2023/12/05 02:40:25;;;;;;;28.80;14.43;;;;;;;1.93;95.97;95514.63;4973514;28;20363;-73
2023/12/05 02:42:51;;;;;;;33.73;16.30;;;;;;;1.89;96.14;95510.66;4984195;28;20792;-72
2023/12/05 02:45:18;;;;;;;38.90;17.27;;;;;;;1.86;95.92;95510.09;4977113;28;20390;-72
2023/12/05 02:47:48;;;;;;;24.13;11.70;;;;;;;1.91;96.20;95497.63;4976250;28;20735;-72
2023/12/05 02:50:16;;;;;;;23.47;10.10;;;;;;;1.79;96.22;95493.53;4982305;28;20240;-72
2023/12/05 02:52:44;;;;;;;12.90;6.80;;;;;;;1.68;96.35;95486.69;4974569;28;20236;-72
2023/12/05 02:55:10;;;;;;;15.27;7.40;;;;;;;1.73;96.65;95486.28;4964723;28;20317;-72
2023/12/05 02:57:35;;;;;;;16.73;8.17;;;;;;;1.78;95.63;95487.53;4963764;28;20706;-71
2023/12/05 03:00:03;;;;;;;29.03;13.47;;;;;;;1.80;95.88;95466.75;4973168;28;20298;-72
2023/12/05 03:02:29;;;;;;;15.93;8.40;;;;;;;1.63;96.56;95482.88;4952359;28;20243;-72
2023/12/05 03:04:54;;;;;;;26.73;10.27;;;;;;;1.69;95.88;95482.34;4983191;28;20231;-72
2023/12/05 03:07:20;;;;;;;33.63;13.30;;;;;;;1.81;95.63;95483.88;4998568;28;20259;-73
2023/12/05 03:09:46;;;;;;;19.43;8.10;;;;;;;1.88;96.12;95490.97;4969194;28;20310;-72
2023/12/05 03:12:11;;;;;;;12.20;6.33;;;;;;;1.88;95.80;95488.38;4979892;28;20330;-72
2023/12/05 03:14:37;;;;;;;11.90;6.73;;;;;;;1.69;95.80;95492.69;4963494;28;20251;-72
2023/12/05 03:17:03;;;;;;;14.30;7.70;;;;;;;1.82;95.03;95498.41;4980702;28;20692;-71
2023/12/05 03:19:28;;;;;;;16.57;9.00;;;;;;;1.74;95.57;95491.34;4966034;28;20238;-71
2023/12/05 03:21:54;;;;;;;28.77;13.93;;;;;;;1.82;95.64;95491.47;4992034;28;20276;-72
2023/12/05 03:24:20;;;;;;;15.70;7.73;;;;;;;1.64;95.91;95474.19;4979570;28;20773;-71
2023/12/05 03:26:46;;;;;;;14.00;7.40;;;;;;;1.76;96.03;95483.47;4976235;28;20246;-71
2023/12/05 03:29:12;;;;;;;14.07;8.00;;;;;;;1.94;95.31;95485.25;4974145;28;20248;-72
2023/12/05 03:31:39;;;;;;;13.47;7.30;;;;;;;1.90;94.98;95477.91;4981945;28;20235;-72
2023/12/05 03:34:04;;;;;;;14.10;7.10;;;;;;;1.89;95.29;95479.69;4966880;28;20228;-72
2023/12/05 03:36:30;;;;;;;14.40;6.97;;;;;;;2.04;94.43;95488.69;4977629;28;20247;-72
2023/12/05 03:38:55;;;;;;;12.00;6.60;;;;;;;1.97;94.06;95479.00;4976052;28;20346;-71
2023/12/05 03:41:22;;;;;;;14.47;7.50;;;;;;;1.97;93.70;95485.00;4953156;28;20259;-72
2023/12/05 03:43:47;;;;;;;15.73;8.40;;;;;;;1.79;94.63;95483.22;4980694;28;20793;-72
2023/12/05 03:46:13;;;;;;;14.73;8.07;;;;;;;1.81;95.28;95482.13;4991629;28;20286;-73
2023/12/05 03:48:39;;;;;;;11.37;6.57;;;;;;;1.87;94.38;95475.59;4976363;28;20293;-79
2023/12/05 03:51:04;;;;;;;12.00;6.63;;;;;;;1.93;94.76;95481.06;4978873;28;20231;-79
2023/12/05 03:53:30;;;;;;;17.73;8.90;;;;;;;1.97;94.46;95477.25;4994319;28;20223;-79
2023/12/05 03:55:59;;;;;;;17.73;8.70;;;;;;;2.08;93.63;95481.47;4958904;28;20231;-79
2023/12/05 03:58:24;;;;;;;12.40;6.90;;;;;;;2.26;92.73;95482.44;4975887;28;20223;-71
2023/12/05 04:00:50;;;;;;;30.67;13.07;;;;;;;2.05;92.89;95492.88;4993922;28;20282;-71
2023/12/05 04:03:15;;;;;;;30.90;12.30;;;;;;;1.87;94.27;95475.59;4981212;28;20830;-73
2023/12/05 04:05:41;;;;;;;21.87;10.17;;;;;;;1.96;93.44;95478.19;4966536;28;20224;-73
2023/12/05 04:08:09;;;;;;;13.83;6.87;;;;;;;1.92;93.13;95465.69;4975397;28;20243;-72
2023/12/05 04:10:35;;;;;;;18.07;7.90;;;;;;;1.98;93.58;95478.88;4974644;28;20686;-73
2023/12/05 04:13:01;;;;;;;13.20;7.30;;;;;;;1.75;94.60;95472.31;4978814;28;20228;-73
2023/12/05 04:15:26;;;;;;;19.57;10.27;;;;;;;1.87;94.79;95470.44;4993544;28;20319;-79
2023/12/05 04:17:52;;;;;;;16.73;8.83;;;;;;;1.75;94.38;95463.75;4980505;28;20228;-79
2023/12/05 04:20:17;;;;;;;16.50;8.07;;;;;;;1.77;94.83;95459.28;4979550;28;20310;-79
2023/12/05 04:22:43;;;;;;;38.27;14.57;;;;;;;2.03;93.97;95468.16;4975383;28;20977;-71
2023/12/05 04:25:10;;;;;;;41.40;18.60;;;;;;;2.07;93.60;95466.94;4946911;28;20306;-79
2023/12/05 04:27:36;;;;;;;24.70;12.23;;;;;;;2.31;92.99;95464.78;4950763;28;20240;-79
2023/12/05 04:30:02;;;;;;;28.93;13.53;;;;;;;2.03;93.40;95455.25;4976829;28;20303;-79
2023/12/05 04:32:27;;;;;;;44.73;20.13;;;;;;;2.28;93.83;95457.31;4974299;28;20241;-79
2023/12/05 04:34:53;;;;;;;32.60;14.50;;;;;;;2.00;94.13;95458.94;4988096;28;20238;-77
2023/12/05 04:37:19;;;;;;;61.17;26.80;;;;;;;2.20;93.51;95458.94;4978433;28;20232;-78
2023/12/05 04:39:44;;;;;;;41.90;19.53;;;;;;;2.38;93.48;95465.06;4994379;28;20228;-79
2023/12/05 04:42:10;;;;;;;24.27;11.83;;;;;;;2.40;92.61;95463.97;4993337;28;20709;-80
2023/12/05 04:44:35;;;;;;;31.83;15.30;;;;;;;2.43;93.61;95468.03;4991714;28;20228;-78
2023/12/05 04:47:03;;;;;;;87.17;38.00;;;;;;;2.43;92.58;95468.88;4966429;28;20323;-78
2023/12/05 04:49:29;;;;;;;44.13;20.37;;;;;;;2.36;92.39;95457.44;4979582;28;20235;-80
2023/12/05 04:51:55;;;;;;;52.67;24.70;;;;;;;2.48;92.79;95468.44;4976564;28;20240;-82
2023/12/05 04:54:20;;;;;;;25.43;12.43;;;;;;;2.56;93.91;95474.56;4976206;28;20263;-73
2023/12/05 04:56:46;;;;;;;24.73;12.10;;;;;;;2.51;92.82;95479.31;4974626;28;20606;-71
2023/12/05 04:59:11;;;;;;;15.73;8.27;;;;;;;2.47;93.14;95475.38;4972597;28;20706;-71
2023/12/05 05:01:37;;;;;;;16.40;8.30;;;;;;;2.40;93.38;95476.06;4974957;28;20627;-71
2023/12/05 05:04:03;;;;;;;17.40;8.57;;;;;;;2.43;91.49;95468.88;4978701;28;20330;-71
2023/12/05 05:06:28;;;;;;;15.47;7.47;;;;;;;2.48;91.43;95471.84;4963448;28;20604;-73
2023/12/05 05:08:54;;;;;;;26.03;12.80;;;;;;;2.44;91.97;95474.81;4975940;28;20266;-80
2023/12/05 05:11:20;;;;;;;17.17;9.00;;;;;;;2.41;93.24;95480.28;4976033;28;20270;-81
2023/12/05 05:13:45;;;;;;;14.50;7.50;;;;;;;2.17;94.10;95488.44;4977073;28;20242;-80
2023/12/05 05:16:11;;;;;;;17.43;7.57;;;;;;;2.42;92.78;95477.56;4991571;28;20309;-81
2023/12/05 05:18:37;;;;;;;18.70;8.90;;;;;;;2.43;92.61;95479.19;4975259;28;21207;-79
2023/12/05 05:21:05;;;;;;;15.53;7.70;;;;;;;2.43;92.43;95476.63;4954876;28;20332;-79
2023/12/05 05:23:31;;;;;;;15.90;7.83;;;;;;;2.44;92.61;95498.06;4956061;28;20227;-81
2023/12/05 05:25:56;;;;;;;14.80;7.60;;;;;;;2.32;93.00;95499.16;4991065;28;20236;-80
2023/12/05 05:28:22;;;;;;;15.53;7.30;;;;;;;2.34;94.60;95494.69;4965792;28;20263;-80
2023/12/05 05:30:48;;;;;;;15.43;7.33;;;;;;;2.30;93.42;95481.22;4957735;28;20248;-81
2023/12/05 05:33:14;;;;;;;13.60;7.53;;;;;;;2.07;94.74;95481.63;4960428;28;20237;-79
2023/12/05 05:35:39;;;;;;;11.87;7.10;;;;;;;2.14;95.40;95490.44;4929346;28;20244;-81
2023/12/05 05:38:05;;;;;;;13.80;7.40;;;;;;;2.14;94.74;95486.09;4952873;28;20245;-81
2023/12/05 05:40:31;;;;;;;18.70;8.10;;;;;;;2.10;94.15;95471.84;4944853;28;20271;-82
2023/12/05 05:42:56;;;;;;;19.47;8.10;;;;;;;2.35;94.06;95481.63;4940126;28;20286;-81
2023/12/05 05:45:22;;;;;;;20.57;10.03;;;;;;;2.37;93.06;95474.56;4961934;28;21045;-79
2023/12/05 05:47:48;;;;;;;18.77;8.83;;;;;;;2.42;93.05;95479.31;4944541;28;20724;-81
2023/12/05 05:50:13;;;;;;;31.43;15.00;;;;;;;2.34;93.19;95480.00;4974516;28;20239;-81
2023/12/05 05:52:43;;;;;;;20.90;9.10;;;;;;;2.34;92.77;95474.81;4973533;28;20249;-82
2023/12/05 05:55:08;;;;;;;34.93;14.57;;;;;;;2.41;93.05;95468.16;4950295;28;20227;-72
2023/12/05 05:57:35;;;;;;;18.03;8.90;;;;;;;2.39;93.09;95467.47;4978961;28;20238;-73
2023/12/05 06:00:03;;;;;;;20.37;9.60;;;;;;;2.39;93.84;95464.91;4982531;28;20227;-72
2023/12/05 06:02:29;;;;;;;18.40;8.53;;;;;;;2.33;95.62;95473.22;4972428;28;20230;-72
2023/12/05 06:04:55;;;;;;;21.57;9.23;;;;;;;2.40;94.71;95458.78;4989259;28;20236;-73
2023/12/05 06:07:23;;;;;;;18.93;10.27;;;;;;;2.39;94.52;95452.00;4950767;28;20298;-71
2023/12/05 06:09:48;;;;;;;23.67;11.07;;;;;;;2.41;95.12;95447.50;4954227;28;20673;-72
2023/12/05 06:12:14;;;;;;;25.43;11.17;;;;;;;2.52;94.91;95455.13;4978800;28;20227;-72
2023/12/05 06:14:40;;;;;;;23.60;11.37;;;;;;;2.51;93.54;95445.72;4955280;28;20236;-73
2023/12/05 06:17:06;;;;;;;37.03;16.60;;;;;;;2.57;93.16;95442.59;4953405;28;20270;-72
2023/12/05 06:19:31;;;;;;;67.73;31.00;;;;;;;2.63;92.72;95434.28;4949730;28;20866;-73
2023/12/05 06:21:57;;;;;;;63.13;29.90;;;;;;;2.52;92.87;95442.22;4972401;28;20228;-72
2023/12/05 06:24:23;;;;;;;33.23;14.77;;;;;;;2.38;93.09;95434.88;4950507;28;20242;-72
2023/12/05 06:26:48;;;;;;;21.37;9.90;;;;;;;2.20;94.33;95431.34;4960141;28;20260;-72
2023/12/05 06:29:14;;;;;;;25.20;11.10;;;;;;;2.12;94.39;95431.22;4972953;28;20307;-73
2023/12/05 06:31:39;;;;;;;24.63;10.37;;;;;;;2.28;95.22;95431.47;4983482;28;20307;-72
2023/12/05 06:34:06;;;;;;;21.47;9.97;;;;;;;2.24;95.86;95442.22;4973216;28;20979;-72
2023/12/05 06:36:31;;;;;;;22.27;10.30;;;;;;;2.34;95.17;95449.00;4958533;28;20325;-72
2023/12/05 06:38:57;;;;;;;20.93;9.80;;;;;;;2.35;94.04;95454.97;4988855;28;20251;-71
2023/12/05 06:41:22;;;;;;;20.90;9.80;;;;;;;2.44;93.37;95451.56;4963319;28;20330;-73
2023/12/05 06:43:48;;;;;;;21.77;9.90;;;;;;;2.53;93.17;95448.97;4963606;28;20228;-72
2023/12/05 06:46:13;;;;;;;23.23;10.50;;;;;;;2.36;94.48;95441.97;4978156;28;20248;-73
2023/12/05 06:48:39;;;;;;;28.60;10.97;;;;;;;2.49;93.99;95439.06;4991305;28;20930;-73
2023/12/05 06:51:05;;;;;;;26.90;11.10;;;;;;;2.52;93.94;95434.47;4973794;28;20314;-72
2023/12/05 06:53:30;;;;;;;22.10;10.80;;;;;;;2.49;94.53;95434.72;4975877;28;20269;-72
2023/12/05 06:55:56;;;;;;;25.20;10.60;;;;;;;2.65;94.73;95432.38;4972380;28;20239;-73
2023/12/05 06:58:22;;;;;;;23.13;10.57;;;;;;;2.62;93.66;95430.09;4960053;28;20225;-73
2023/12/05 07:00:48;;;;;;;25.73;10.77;;;;;;;2.72;94.10;95435.25;4959754;28;20303;-72
2023/12/05 07:03:17;;;;;;;23.17;10.97;;;;;;;2.92;93.28;95436.00;4952535;28;20235;-73
2023/12/05 07:05:42;;;;;;;22.97;11.03;;;;;;;2.88;93.11;95426.91;4955203;28;20235;-72
2023/12/05 07:08:08;;;;;;;29.77;12.87;;;;;;;2.94;92.81;95418.59;4936609;28;20231;-72
2023/12/05 07:10:34;;;;;;;38.00;15.93;;;;;;;3.04;92.91;95407.25;4955207;28;20275;-72
2023/12/05 07:12:59;;;;;;;47.70;17.80;;;;;;;3.15;92.44;95407.06;4965221;28;20220;-72
2023/12/05 07:15:25;;;;;;;34.83;15.00;;;;;;;2.97;92.49;95403.59;4987134;28;20239;-72
2023/12/05 07:17:50;;;;;;;39.50;16.23;;;;;;;3.20;91.60;95398.91;4979167;28;20267;-72
2023/12/05 07:20:16;;;;;;;91.63;35.93;;;;;;;3.25;91.57;95392.31;4963632;28;20776;-71
2023/12/05 07:22:45;;;;;;;43.20;17.57;;;;;;;3.18;92.37;95393.03;4965068;28;20739;-72
2023/12/05 07:25:10;;;;;;;39.90;16.33;;;;;;;3.34;91.01;95403.59;4960039;28;20235;-72
2023/12/05 07:27:36;;;;;;;33.27;14.73;;;;;;;3.24;91.39;95400.25;4964349;28;20224;-72
2023/12/05 07:30:02;;;;;;;22.67;10.77;;;;;;;3.31;91.41;95403.88;4958505;28;20311;-72
2023/12/05 07:32:27;;;;;;;23.47;10.27;;;;;;;3.16;92.09;95394.94;4974821;28;20771;-72
2023/12/05 07:34:53;;;;;;;28.80;15.50;;;;;;;3.26;92.07;95399.13;4975853;28;20239;-72
2023/12/05 07:37:18;;;;;;;24.93;11.60;;;;;;;3.33;91.91;95395.03;4979552;28;20238;-72
2023/12/05 07:39:44;;;;;;;24.00;10.87;;;;;;;3.30;91.42;95390.13;4975373;28;20238;-71
2023/12/05 07:42:10;;;;;;;33.80;13.03;;;;;;;3.36;91.31;95386.16;4973802;28;20756;-72
2023/12/05 07:44:35;;;;;;;22.07;11.57;;;;;;;3.36;91.54;95396.50;4978167;28;20258;-71
2023/12/05 07:47:01;;;;;;;24.27;11.63;;;;;;;3.42;91.50;95396.75;4976801;28;20314;-72
2023/12/05 07:49:26;;;;;;;23.37;11.10;;;;;;;3.38;91.64;95398.00;4975883;28;20243;-71
2023/12/05 07:51:52;;;;;;;27.73;10.93;;;;;;;3.52;91.46;95390.69;4967757;28;20253;-71
2023/12/05 07:54:18;;;;;;;23.70;11.30;;;;;;;3.50;92.76;95406.38;4993325;28;20248;-72
2023/12/05 07:56:43;;;;;;;21.23;10.70;;;;;;;3.63;92.50;95408.63;4962998;28;20244;-72
2023/12/05 07:59:09;;;;;;;21.43;10.77;;;;;;;3.71;91.01;95416.44;4982124;28;20228;-73
2023/12/05 08:01:34;;;;;;;20.10;10.20;;;;;;;3.67;91.12;95408.19;4994608;28;20215;-72
2023/12/05 08:04:02;;;;;;;25.50;10.63;;;;;;;3.77;92.23;95419.31;4975663;28;20298;-72
2023/12/05 08:06:27;;;;;;;27.70;13.23;;;;;;;3.58;91.76;95413.41;4977490;28;20239;-73
2023/12/05 08:08:53;;;;;;;25.77;11.40;;;;;;;3.59;92.25;95420.19;4963153;28;20232;-70
2023/12/05 08:11:20;;;;;;;23.77;10.83;;;;;;;3.37;93.64;95422.22;4975505;28;20240;-72
2023/12/05 08:13:47;;;;;;;25.13;12.27;;;;;;;3.58;93.67;95423.75;4981749;28;20274;-73
2023/12/05 08:16:13;;;;;;;28.93;11.87;;;;;;;3.61;94.00;95426.03;4981581;28;20293;-73
2023/12/05 08:18:38;;;;;;;24.07;10.80;;;;;;;3.74;93.23;95427.34;4961872;28;20235;-73
2023/12/05 08:21:05;;;;;;;29.10;11.30;;;;;;;3.79;92.28;95434.66;4975384;28;20306;-70
2023/12/05 08:23:30;;;;;;;20.90;10.67;;;;;;;3.92;92.06;95420.41;4979931;28;20287;-72
2023/12/05 08:25:56;;;;;;;25.60;11.53;;;;;;;3.93;92.56;95411.69;4965428;28;20315;-70
2023/12/05 08:28:21;;;;;;;23.97;11.37;;;;;;;4.02;93.33;95397.84;4978455;28;20259;-73
2023/12/05 08:30:47;;;;;;;25.77;12.87;;;;;;;4.05;92.11;95397.56;4976915;28;20258;-73
2023/12/05 08:33:14;;;;;;;22.87;11.40;;;;;;;3.96;92.54;95411.38;4988827;28;20235;-74
2023/12/05 08:35:39;;;;;;;22.83;10.60;;;;;;;3.88;91.99;95400.97;4975061;28;20684;-73
2023/12/05 08:38:05;;;;;;;21.50;9.57;;;;;;;3.85;91.88;95403.00;4988063;28;20228;-72
2023/12/05 08:40:30;;;;;;;28.43;14.30;;;;;;;4.02;91.35;95408.22;4993197;28;20704;-72
2023/12/05 08:42:56;;;;;;;31.67;15.40;;;;;;;4.20;91.40;95404.81;4974314;28;21020;-74
2023/12/05 08:45:22;;;;;;;27.40;11.13;;;;;;;4.17;90.81;95400.75;4965640;28;20250;-72
2023/12/05 08:47:52;;;;;;;24.17;10.50;;;;;;;4.14;91.75;95402.81;4973369;28;20672;-71
2023/12/05 08:50:18;;;;;;;22.83;9.63;;;;;;;4.20;91.39;95405.63;4965962;28;20922;-73
2023/12/05 08:52:44;;;;;;;25.00;10.03;;;;;;;4.16;92.10;95406.06;4975603;28;20267;-73
2023/12/05 08:55:10;;;;;;;25.20;11.13;;;;;;;4.35;91.34;95395.53;4981896;28;21008;-72
2023/12/05 08:57:36;;;;;;;24.03;10.53;;;;;;;4.48;90.48;95385.59;4979204;28;20247;-72
2023/12/05 09:00:05;;;;;;;20.17;10.17;;;;;;;4.58;90.50;95386.34;4964582;28;20772;-72
2023/12/05 09:02:31;;;;;;;23.00;9.90;;;;;;;4.64;90.81;95383.13;4975954;28;20306;-73
2023/12/05 09:04:57;;;;;;;22.13;10.43;;;;;;;4.83;89.48;95376.91;4992603;28;20239;-81
2023/12/05 09:07:23;;;;;;;26.60;11.57;;;;;;;5.06;89.92;95373.66;4954202;28;20264;-79
2023/12/05 09:09:49;;;;;;;24.27;11.17;;;;;;;4.92;88.63;95369.03;4986970;28;20243;-78
2023/12/05 09:12:15;;;;;;;26.90;10.60;;;;;;;4.84;89.08;95363.00;4957279;28;20228;-79
2023/12/05 09:14:40;;;;;;;25.17;11.07;;;;;;;4.97;89.09;95358.22;4975176;28;20293;-79
2023/12/05 09:17:09;;;;;;;27.73;12.63;;;;;;;4.82;89.53;95357.16;4966011;28;20322;-79
2023/12/05 09:19:35;;;;;;;26.27;10.93;;;;;;;4.91;89.35;95359.63;4974625;28;20235;-78
2023/12/05 09:22:00;;;;;;;25.90;10.87;;;;;;;5.05;89.61;95348.69;4975099;28;20311;-79
2023/12/05 09:24:26;;;;;;;30.87;14.90;;;;;;;5.08;88.34;95352.75;4981112;28;20323;-79
2023/12/05 09:26:52;;;;;;;26.87;14.07;;;;;;;5.05;88.61;95347.88;4975926;28;20318;-71
2023/12/05 09:29:18;;;;;;;20.57;10.17;;;;;;;4.97;88.97;95342.66;4977557;28;20235;-73
2023/12/05 09:31:43;;;;;;;39.50;18.63;;;;;;;5.08;89.39;95332.81;4972778;28;20234;-73
2023/12/05 09:34:09;;;;;;;26.67;11.47;;;;;;;4.96;89.33;95326.28;4991926;28;20228;-74
2023/12/05 09:36:35;;;;;;;21.03;10.70;;;;;;;5.18;88.25;95317.13;4993677;28;20319;-73
2023/12/05 09:39:00;;;;;;;21.70;9.83;;;;;;;5.40;90.25;95308.75;4977623;28;20290;-73
2023/12/05 09:41:27;;;;;;;20.53;9.03;;;;;;;5.47;88.11;95319.31;4963976;28;20240;-73
2023/12/05 09:43:52;;;;;;;22.33;10.70;;;;;;;5.42;87.52;95319.81;4973890;28;20254;-73
2023/12/05 09:46:20;;;;;;;19.17;9.77;;;;;;;5.51;88.09;95321.44;4990500;28;20239;-72
2023/12/05 09:48:47;;;;;;;22.20;10.30;;;;;;;5.59;87.49;95316.25;4973801;28;20270;-73
2023/12/05 09:51:19;;;;;;;26.17;9.90;;;;;;;5.65;87.50;95312.22;4975000;28;20263;-73
2023/12/05 09:53:45;;;;;;;24.83;9.63;;;;;;;5.70;87.02;95307.34;4975779;28;20322;-73
2023/12/05 09:56:11;;;;;;;19.00;10.27;;;;;;;5.46;86.59;95302.94;4971594;28;20232;-74
2023/12/05 09:58:42;;;;;;;20.87;10.53;;;;;;;5.54;87.04;95292.53;4972585;28;20224;-73
2023/12/05 10:01:07;;;;;;;20.83;9.27;;;;;;;5.50;86.65;95282.66;4969337;28;20232;-73
2023/12/05 10:03:34;;;;;;;21.97;9.23;;;;;;;5.49;86.99;95284.44;4989270;28;20904;-72
2023/12/05 10:06:01;;;;;;;19.33;9.47;;;;;;;5.68;87.98;95272.97;4973650;28;20250;-73
2023/12/05 10:08:27;;;;;;;26.27;10.10;;;;;;;5.62;87.83;95268.38;4973392;28;20239;-73
2023/12/05 10:10:54;;;;;;;21.70;9.23;;;;;;;5.53;86.88;95264.97;4971251;28;20246;-73
2023/12/05 10:13:20;;;;;;;20.40;9.50;;;;;;;5.67;87.62;95255.75;4968531;28;20284;-72
2023/12/05 10:15:45;;;;;;;23.03;9.93;;;;;;;5.80;88.03;95261.28;4938134;28;20221;-72
2023/12/05 10:18:11;;;;;;;21.70;9.20;;;;;;;5.54;88.38;95245.81;4935775;28;20314;-73
2023/12/05 10:20:38;;;;;;;21.53;9.13;;;;;;;5.60;87.67;95241.78;4945439;28;20323;-73
2023/12/05 10:23:03;;;;;;;28.97;12.30;;;;;;;5.86;88.18;95235.50;4960961;28;20935;-73
2023/12/05 10:25:29;;;;;;;24.70;9.73;;;;;;;5.79;88.23;95238.88;4974371;28;20227;-72
2023/12/05 10:28:08;;;;;;;19.87;9.53;;;;;;;5.73;87.38;95229.16;4992251;28;20286;-74
2023/12/05 10:30:37;;;;;;;20.77;9.20;;;;;;;5.77;87.61;95220.88;4976863;28;20283;-73
2023/12/05 10:33:19;;;;;;;25.17;9.07;;;;;;;5.97;87.30;95218.78;4974750;28;20227;-72
2023/12/05 10:35:45;;;;;;;14.33;6.17;;;;;;;5.99;87.32;95216.81;4966544;28;20777;-73
2023/12/05 10:38:15;;;;;;;17.87;7.40;;;;;;;6.16;87.30;95205.44;4957181;28;20317;-73
2023/12/05 10:40:53;;;;;;;15.43;8.20;;;;;;;6.02;87.07;95198.28;4972575;28;20238;-73
2023/12/05 10:43:19;;;;;;;18.83;7.30;;;;;;;6.10;87.60;95201.72;4987423;28;20317;-78
2023/12/05 10:45:44;;;;;;;17.93;8.63;;;;;;;6.11;87.43;95202.53;4980505;28;20219;-79
2023/12/05 10:48:11;;;;;;;27.83;12.53;;;;;;;5.80;89.59;95188.56;4965231;28;20318;-80
2023/12/05 10:50:39;;;;;;;25.87;12.37;;;;;;;5.93;89.60;95179.31;4976972;28;20429;-74
2023/12/05 10:53:05;;;;;;;19.90;9.63;;;;;;;6.05;89.30;95177.19;4977467;28;20235;-73
2023/12/05 10:55:30;;;;;;;21.90;12.17;;;;;;;6.05;89.57;95172.00;4978519;28;20235;-73
2023/12/05 10:57:56;;;;;;;18.17;9.07;;;;;;;6.01;90.49;95165.50;4992178;28;20288;-74
2023/12/05 11:00:22;;;;;;;22.50;9.83;;;;;;;6.05;90.13;95164.19;4966516;28;20671;-73
2023/12/05 11:02:48;;;;;;;23.53;11.50;;;;;;;6.01;90.39;95162.91;4979870;28;20222;-73
2023/12/05 11:05:14;;;;;;;19.87;8.80;;;;;;;5.91;90.84;95162.28;4978022;28;20778;-73
2023/12/05 11:07:40;;;;;;;17.60;8.17;;;;;;;6.01;91.42;95160.31;4975165;28;20239;-73
2023/12/05 11:10:06;;;;;;;14.03;6.67;;;;;;;6.06;90.57;95158.03;4991874;28;20289;-72
2023/12/05 11:12:33;;;;;;;18.07;8.50;;;;;;;6.08;90.23;95159.50;4981848;28;20305;-73
2023/12/05 11:14:59;;;;;;;101.37;40.87;;;;;;;6.22;90.35;95159.78;4967167;28;20718;-73
2023/12/05 11:17:28;;;;;;;43.83;19.53;;;;;;;6.06;90.53;95148.47;4956842;28;20221;-73
2023/12/05 11:20:21;;;;;;;20.20;8.63;;;;;;;6.10;90.58;95147.13;4955219;28;20996;-73
2023/12/05 11:23:04;;;;;;;15.67;7.87;;;;;;;6.29;89.46;95145.13;4981128;28;20736;-73
2023/12/05 11:25:48;;;;;;;17.50;8.10;;;;;;;6.30;90.12;95144.16;4991308;28;20231;-73